createdAt,value
2023-02-09T00:01:31.864Z,25.30
2023-02-09T00:04:03.447Z,21.50
2023-02-09T00:06:33.740Z,14.00
2023-02-09T00:09:04.313Z,13.00
2023-02-09T00:12:02.352Z,9.30
2023-02-09T00:14:34.145Z,17.90
2023-02-09T00:17:04.939Z,13.00
2023-02-09T00:19:34.172Z,11.00
2023-02-09T00:22:03.653Z,8.90
2023-02-09T00:24:33.080Z,8.80
2023-02-09T00:27:02.287Z,9.20
2023-02-09T00:29:32.105Z,7.60
2023-02-09T00:32:01.338Z,7.90
2023-02-09T00:34:30.618Z,8.70
2023-02-09T00:36:59.585Z,11.50
2023-02-09T00:39:29.841Z,10.20
2023-02-09T00:42:08.331Z,8.40
2023-02-09T00:44:41.100Z,8.80
2023-02-09T00:47:10.393Z,8.30
2023-02-09T00:49:41.935Z,8.50
2023-02-09T00:52:11.116Z,8.50
2023-02-09T00:54:40.676Z,8.80
2023-02-09T00:57:10.234Z,8.60
2023-02-09T00:59:41.631Z,8.00
2023-02-09T01:02:10.801Z,8.30
2023-02-09T01:04:40.587Z,9.10
2023-02-09T01:07:09.939Z,8.00
2023-02-09T01:09:38.963Z,8.60
2023-02-09T01:12:08.448Z,8.70
2023-02-09T01:14:41.499Z,8.30
2023-02-09T01:17:11.381Z,8.80
2023-02-09T01:19:40.741Z,8.30
2023-02-09T01:22:10.015Z,7.40
2023-02-09T01:24:40.912Z,8.50
2023-02-09T01:27:09.794Z,8.30
2023-02-09T01:29:38.668Z,7.90
2023-02-09T01:32:08.292Z,8.50
2023-02-09T01:34:37.687Z,8.20
2023-02-09T01:37:06.512Z,7.90
2023-02-09T01:39:35.283Z,7.60
2023-02-09T01:42:05.524Z,7.00
2023-02-09T01:44:40.230Z,7.70
2023-02-09T01:47:20.881Z,7.00
2023-02-09T01:49:52.523Z,7.00
2023-02-09T01:52:29.926Z,6.90
2023-02-09T01:55:03.204Z,7.50
2023-02-09T01:57:40.632Z,7.40
2023-02-09T02:00:16.000Z,7.50
2023-02-09T02:02:48.547Z,7.30
2023-02-09T02:05:19.137Z,6.40
2023-02-09T02:08:13.689Z,7.30
2023-02-09T02:10:43.107Z,7.40
2023-02-09T02:13:12.440Z,7.70
2023-02-09T02:15:56.073Z,7.50
2023-02-09T02:18:33.052Z,7.50
2023-02-09T02:21:32.907Z,7.50
2023-02-09T02:24:28.608Z,6.60
2023-02-09T02:27:11.228Z,7.30
2023-02-09T02:29:47.541Z,6.80
2023-02-09T02:32:19.373Z,7.30
2023-02-09T02:34:59.787Z,7.40
2023-02-09T02:37:50.993Z,7.70
2023-02-09T02:40:23.033Z,7.00
2023-02-09T02:43:15.396Z,7.20
2023-02-09T02:45:59.405Z,7.40
2023-02-09T02:48:41.748Z,7.20
2023-02-09T02:51:21.309Z,7.00
2023-02-09T02:53:56.307Z,6.70
2023-02-09T02:56:30.937Z,6.60
2023-02-09T02:59:05.168Z,6.10
2023-02-09T03:01:42.240Z,6.60
2023-02-09T03:04:14.010Z,6.80
2023-02-09T03:06:43.345Z,7.00
2023-02-09T03:09:13.324Z,6.90
2023-02-09T03:11:45.443Z,6.40
2023-02-09T03:14:40.834Z,6.10
2023-02-09T03:18:01.620Z,6.20
2023-02-09T03:20:44.484Z,6.20
2023-02-09T03:23:33.060Z,6.30
2023-02-09T03:26:09.970Z,7.00
2023-02-09T03:28:41.966Z,5.80
2023-02-09T03:31:12.107Z,5.70
2023-02-09T03:33:43.723Z,6.40
2023-02-09T03:36:19.258Z,6.60
2023-02-09T03:38:48.224Z,6.40
2023-02-09T03:41:17.361Z,6.70
2023-02-09T03:44:05.012Z,5.80
2023-02-09T03:46:34.656Z,5.70
2023-02-09T03:49:04.133Z,5.90
2023-02-09T03:51:33.502Z,6.00
2023-02-09T03:54:02.528Z,6.20
2023-02-09T03:56:31.882Z,6.70
2023-02-09T03:59:01.428Z,5.70
2023-02-09T04:01:30.791Z,5.70
2023-02-09T04:04:02.642Z,5.80
2023-02-09T04:06:33.989Z,6.20
2023-02-09T04:09:04.191Z,6.50
2023-02-09T04:11:33.513Z,6.00
2023-02-09T04:14:02.824Z,5.70
2023-02-09T04:16:32.048Z,5.60
2023-02-09T04:19:00.807Z,5.90
2023-02-09T04:21:30.276Z,5.90
2023-02-09T04:23:59.316Z,6.30
2023-02-09T04:26:28.284Z,6.10
2023-02-09T04:28:57.442Z,5.60
2023-02-09T04:31:26.805Z,5.70
2023-02-09T04:33:56.017Z,5.80
2023-02-09T04:36:26.189Z,5.80
2023-02-09T04:38:55.808Z,6.40
2023-02-09T04:41:24.784Z,6.40
2023-02-09T04:43:54.281Z,6.20
2023-02-09T04:46:24.448Z,5.60
2023-02-09T04:48:53.308Z,5.80
2023-02-09T04:51:22.212Z,6.20
2023-02-09T04:53:51.189Z,6.20
2023-02-09T04:56:20.044Z,6.50
2023-02-09T04:59:07.046Z,6.00
2023-02-09T05:01:36.827Z,5.60
2023-02-09T05:04:05.919Z,6.00
2023-02-09T05:06:35.013Z,6.20
2023-02-09T05:09:04.197Z,7.90
2023-02-09T05:11:33.199Z,7.00
2023-02-09T05:14:01.993Z,20.10
2023-02-09T05:16:30.719Z,13.10
2023-02-09T05:18:59.876Z,37.90
2023-02-09T05:21:28.680Z,15.10
2023-02-09T05:23:57.685Z,33.50
2023-02-09T05:26:26.844Z,34.30
2023-02-09T05:28:56.009Z,10.90
2023-02-09T05:31:25.059Z,14.60
2023-02-09T05:33:54.109Z,12.10
2023-02-09T05:36:23.204Z,15.00
2023-02-09T05:38:51.939Z,8.60
2023-02-09T05:41:40.021Z,7.60
2023-02-09T05:44:09.284Z,12.40
2023-02-09T05:46:38.323Z,12.20
2023-02-09T05:49:07.737Z,10.70
2023-02-09T05:51:37.092Z,7.10
2023-02-09T05:54:06.766Z,7.00
2023-02-09T05:56:36.043Z,5.90
2023-02-09T05:59:05.529Z,6.00
2023-02-09T06:01:35.646Z,6.60
2023-02-09T06:04:05.093Z,6.80
2023-02-09T06:06:34.412Z,6.90
2023-02-09T06:09:04.019Z,6.90
2023-02-09T06:11:33.894Z,7.20
2023-02-09T06:14:03.314Z,7.70
2023-02-09T06:16:32.194Z,8.30
2023-02-09T06:19:01.135Z,8.60
2023-02-09T06:21:30.595Z,8.10
2023-02-09T06:23:59.724Z,7.90
2023-02-09T06:26:28.794Z,7.60
2023-02-09T06:28:57.617Z,7.00
2023-02-09T06:31:26.707Z,7.60
2023-02-09T06:33:56.239Z,7.30
2023-02-09T06:36:25.597Z,6.80
2023-02-09T06:38:54.953Z,6.90
2023-02-09T06:41:25.285Z,7.00
2023-02-09T06:43:54.693Z,7.20
2023-02-09T06:46:26.894Z,6.90
2023-02-09T06:48:57.222Z,7.30
2023-02-09T06:51:28.177Z,7.10
2023-02-09T06:53:57.581Z,7.20
2023-02-09T06:56:26.420Z,7.80
2023-02-09T06:58:56.083Z,9.30
2023-02-09T07:01:25.729Z,9.20
2023-02-09T07:03:55.154Z,9.60
2023-02-09T07:06:24.540Z,7.90
2023-02-09T07:08:53.705Z,7.80
2023-02-09T07:11:23.268Z,8.60
2023-02-09T07:13:52.430Z,8.20
2023-02-09T07:16:21.731Z,8.40
2023-02-09T07:18:50.880Z,9.10
2023-02-09T07:21:22.085Z,9.50
2023-02-09T07:23:51.158Z,9.80
2023-02-09T07:26:20.609Z,8.90
2023-02-09T07:28:50.463Z,9.20
2023-02-09T07:31:19.654Z,9.10
2023-02-09T07:33:48.655Z,6.90
2023-02-09T07:36:18.191Z,9.90
2023-02-09T07:38:47.598Z,7.90
2023-02-09T07:41:20.454Z,8.40
2023-02-09T07:43:49.785Z,8.90
2023-02-09T07:46:22.043Z,8.90
2023-02-09T07:48:52.073Z,12.70
2023-02-09T07:51:26.457Z,11.70
2023-02-09T07:53:57.660Z,8.90
2023-02-09T07:56:27.885Z,6.70
2023-02-09T07:58:58.690Z,6.60
2023-02-09T08:01:30.400Z,6.30
2023-02-09T08:04:00.403Z,5.90
2023-02-09T08:06:46.825Z,6.40
2023-02-09T08:09:19.892Z,6.10
2023-02-09T08:11:55.004Z,6.10
2023-02-09T08:14:31.413Z,6.10
2023-02-09T08:17:25.447Z,6.10
2023-02-09T08:20:26.967Z,6.50
2023-02-09T08:23:07.149Z,5.50
2023-02-09T08:25:37.850Z,5.50
2023-02-09T08:28:09.209Z,5.80
2023-02-09T08:30:39.516Z,6.30
2023-02-09T08:33:09.389Z,5.60
2023-02-09T08:35:38.693Z,6.10
2023-02-09T08:38:08.216Z,6.30
2023-02-09T08:40:42.120Z,6.00
2023-02-09T08:43:13.054Z,6.10
2023-02-09T08:45:43.390Z,6.30
2023-02-09T08:48:12.757Z,6.10
2023-02-09T08:50:41.793Z,5.80
2023-02-09T08:53:11.385Z,6.40
2023-02-09T08:55:40.831Z,6.30
2023-02-09T08:58:09.827Z,6.80
2023-02-09T09:00:38.993Z,6.70
2023-02-09T09:03:08.242Z,6.60
2023-02-09T09:05:38.012Z,5.90
2023-02-09T09:08:07.454Z,6.20
2023-02-09T09:10:36.482Z,6.60
2023-02-09T09:13:05.481Z,6.10
2023-02-09T09:15:36.472Z,6.60
2023-02-09T09:18:06.379Z,6.10
2023-02-09T09:20:42.592Z,5.80
2023-02-09T09:23:11.740Z,6.00
2023-02-09T09:25:41.881Z,6.60
2023-02-09T09:28:12.008Z,6.30
2023-02-09T09:30:41.197Z,5.90
2023-02-09T09:33:10.610Z,6.70
2023-02-09T09:35:40.493Z,6.00
2023-02-09T09:38:09.595Z,6.60
2023-02-09T09:40:43.992Z,5.80
2023-02-09T09:43:29.463Z,5.40
2023-02-09T09:45:59.327Z,6.10
2023-02-09T09:48:44.014Z,5.90
2023-02-09T09:51:20.825Z,5.10
2023-02-09T09:53:54.323Z,5.30
2023-02-09T09:56:24.535Z,5.40
2023-02-09T09:58:55.257Z,5.30
2023-02-09T10:01:29.233Z,5.90
2023-02-09T10:04:13.455Z,6.00
2023-02-09T10:06:45.804Z,5.90
2023-02-09T10:09:39.557Z,8.70
2023-02-09T10:12:36.381Z,6.10
2023-02-09T10:15:19.432Z,7.90
2023-02-09T10:17:48.651Z,6.30
2023-02-09T10:20:18.140Z,5.40
2023-02-09T10:22:52.829Z,5.30
2023-02-09T10:25:51.396Z,6.20
2023-02-09T10:28:27.747Z,5.60
2023-02-09T10:31:00.547Z,5.60
2023-02-09T10:33:41.718Z,5.70
2023-02-09T10:36:37.437Z,4.70
2023-02-09T10:39:26.449Z,4.80
2023-02-09T10:41:58.358Z,4.90
2023-02-09T10:44:34.585Z,5.20
2023-02-09T10:47:12.544Z,5.30
2023-02-09T10:49:41.486Z,5.10
2023-02-09T10:52:13.369Z,5.60
2023-02-09T10:54:57.256Z,4.40
2023-02-09T10:57:39.505Z,4.80
2023-02-09T11:00:18.267Z,5.70
2023-02-09T11:02:54.310Z,5.30
2023-02-09T11:05:23.753Z,7.70
2023-02-09T11:07:57.171Z,6.90
2023-02-09T11:10:32.922Z,7.70
2023-02-09T11:13:03.629Z,4.90
2023-02-09T11:15:48.483Z,4.80
2023-02-09T11:18:26.710Z,6.60
2023-02-09T11:21:34.560Z,5.50
2023-02-09T11:24:17.629Z,5.90
2023-02-09T11:26:56.769Z,4.70
2023-02-09T11:29:36.084Z,7.30
2023-02-09T11:32:26.261Z,8.70
2023-02-09T11:35:19.389Z,6.10
2023-02-09T11:38:03.300Z,12.50
2023-02-09T11:40:51.816Z,5.60
2023-02-09T11:43:25.496Z,4.70
2023-02-09T11:46:17.952Z,14.10
2023-02-09T11:48:59.221Z,8.30
2023-02-09T11:51:29.534Z,6.10
2023-02-09T11:54:15.753Z,4.60
2023-02-09T11:56:55.436Z,5.00
2023-02-09T11:59:46.578Z,4.70
2023-02-09T12:02:48.153Z,5.20
2023-02-09T12:05:20.243Z,4.90
2023-02-09T12:08:04.754Z,5.30
2023-02-09T12:10:48.178Z,5.40
2023-02-09T12:13:43.285Z,4.80
2023-02-09T12:16:18.501Z,4.90
2023-02-09T12:18:47.875Z,5.30
2023-02-09T12:21:30.156Z,4.60
2023-02-09T12:24:01.687Z,5.40
2023-02-09T12:26:45.109Z,4.60
2023-02-09T12:29:23.085Z,4.80
2023-02-09T12:32:05.356Z,4.90
2023-02-09T12:34:43.011Z,5.20
2023-02-09T12:37:15.161Z,4.40
2023-02-09T12:40:13.121Z,4.10
2023-02-09T12:43:10.641Z,5.20
2023-02-09T12:45:43.435Z,4.80
2023-02-09T12:48:18.145Z,5.00
2023-02-09T12:50:52.132Z,4.60
2023-02-09T12:53:32.262Z,4.10
2023-02-09T12:56:01.765Z,4.30
2023-02-09T12:58:45.013Z,4.40
2023-02-09T13:01:16.729Z,6.00
2023-02-09T13:03:57.021Z,5.80
2023-02-09T13:06:42.035Z,4.60
2023-02-09T13:09:21.329Z,6.50
2023-02-09T13:11:57.359Z,7.70
2023-02-09T13:14:27.356Z,5.50
2023-02-09T13:17:14.140Z,5.00
2023-02-09T13:20:12.379Z,5.00
2023-02-09T13:23:21.617Z,8.60
2023-02-09T13:25:59.829Z,5.50
2023-02-09T13:28:29.463Z,6.30
2023-02-09T13:30:58.980Z,5.90
2023-02-09T13:33:49.876Z,5.50
2023-02-09T13:36:25.524Z,5.80
2023-02-09T13:38:54.878Z,4.20
2023-02-09T13:41:35.838Z,4.40
2023-02-09T13:44:19.909Z,4.20
2023-02-09T13:47:02.255Z,6.20
2023-02-09T13:49:32.659Z,5.70
2023-02-09T13:52:12.685Z,7.00
2023-02-09T13:54:43.400Z,4.90
2023-02-09T13:57:26.168Z,4.40
2023-02-09T13:59:58.887Z,4.30
2023-02-09T14:02:30.645Z,4.20
2023-02-09T14:05:03.862Z,4.60
2023-02-09T14:07:37.362Z,4.30
2023-02-09T14:10:14.436Z,5.00
2023-02-09T14:12:53.195Z,5.70
2023-02-09T14:15:51.999Z,5.40
2023-02-09T14:18:30.380Z,5.30
2023-02-09T14:21:25.587Z,6.20
2023-02-09T14:24:00.746Z,6.20
2023-02-09T14:26:34.189Z,5.40
2023-02-09T14:29:06.245Z,5.70
2023-02-09T14:31:37.084Z,6.10
2023-02-09T14:34:40.786Z,5.70
2023-02-09T14:37:16.802Z,5.90
2023-02-09T14:40:12.881Z,6.70
2023-02-09T14:43:10.021Z,6.70
2023-02-09T14:45:46.176Z,7.30
2023-02-09T14:48:31.886Z,6.90
2023-02-09T14:51:14.358Z,6.90
2023-02-09T14:53:44.652Z,7.80
2023-02-09T14:56:34.860Z,7.00
2023-02-09T14:59:06.390Z,6.80
2023-02-09T15:01:35.681Z,6.60
2023-02-09T15:04:05.200Z,7.20
2023-02-09T15:06:35.932Z,7.40
2023-02-09T15:09:06.547Z,7.10
2023-02-09T15:11:54.529Z,7.40
2023-02-09T15:14:26.332Z,6.70
2023-02-09T15:16:55.303Z,7.20
2023-02-09T15:19:24.896Z,7.50
2023-02-09T15:22:06.647Z,6.80
2023-02-09T15:24:37.449Z,7.30
2023-02-09T15:27:14.835Z,8.40
2023-02-09T15:29:43.700Z,9.80
2023-02-09T15:32:22.418Z,9.90
2023-02-09T15:34:53.259Z,9.40
2023-02-09T15:37:29.392Z,11.60
2023-02-09T15:40:04.912Z,7.80
2023-02-09T15:42:53.257Z,10.30
2023-02-09T15:45:44.710Z,7.20
2023-02-09T15:48:15.388Z,10.70
2023-02-09T15:50:48.408Z,9.40
2023-02-09T15:53:19.420Z,7.40
2023-02-09T15:55:49.238Z,8.00
2023-02-09T15:58:26.481Z,7.10
2023-02-09T16:00:56.040Z,7.30
2023-02-09T16:03:25.556Z,6.80
2023-02-09T16:06:00.189Z,8.30
2023-02-09T16:08:33.641Z,7.50
2023-02-09T16:11:03.575Z,7.70
2023-02-09T16:13:34.115Z,9.20
2023-02-09T16:16:16.394Z,7.00
2023-02-09T16:18:48.045Z,7.50
2023-02-09T16:21:31.273Z,9.00
2023-02-09T16:24:05.539Z,8.80
2023-02-09T16:26:35.810Z,8.50
2023-02-09T16:29:06.827Z,8.40
2023-02-09T16:31:36.628Z,10.50
2023-02-09T16:34:05.909Z,7.90
2023-02-09T16:36:34.887Z,7.90
2023-02-09T16:39:04.230Z,17.40
2023-02-09T16:41:51.326Z,12.50
2023-02-09T16:44:22.647Z,9.80
2023-02-09T16:46:54.394Z,8.30
2023-02-09T16:49:36.484Z,8.20
2023-02-09T16:52:16.640Z,11.20
2023-02-09T16:54:52.950Z,11.00
2023-02-09T16:57:25.306Z,10.80
2023-02-09T16:59:56.301Z,10.10
2023-02-09T17:02:37.030Z,11.70
2023-02-09T17:05:16.599Z,12.40
2023-02-09T17:07:54.809Z,12.20
2023-02-09T17:10:28.927Z,11.90
2023-02-09T17:12:59.795Z,12.10
2023-02-09T17:15:32.158Z,12.10
2023-02-09T17:18:07.871Z,12.40
2023-02-09T17:20:51.034Z,15.80
2023-02-09T17:23:24.245Z,13.10
2023-02-09T17:25:55.764Z,12.90
2023-02-09T17:28:28.017Z,17.30
2023-02-09T17:31:00.414Z,17.60
2023-02-09T17:33:33.147Z,13.60
2023-02-09T17:36:25.047Z,15.70
2023-02-09T17:38:53.824Z,13.80
2023-02-09T17:41:26.932Z,13.40
2023-02-09T17:44:02.040Z,16.40
2023-02-09T17:46:37.265Z,14.20
2023-02-09T17:49:07.593Z,13.20
2023-02-09T17:51:42.280Z,12.50
2023-02-09T17:54:18.220Z,13.30
2023-02-09T17:56:48.311Z,12.80
2023-02-09T17:59:20.477Z,14.50
2023-02-09T18:01:50.741Z,14.10
2023-02-09T18:04:24.816Z,13.50
2023-02-09T18:06:55.539Z,13.90
2023-02-09T18:09:26.484Z,16.50
2023-02-09T18:12:02.696Z,16.30
2023-02-09T18:14:34.483Z,15.80
2023-02-09T18:17:04.707Z,15.30
2023-02-09T18:19:34.356Z,16.90
2023-02-09T18:22:04.501Z,14.90
2023-02-09T18:24:36.161Z,13.90
2023-02-09T18:27:04.969Z,14.10
2023-02-09T18:29:34.379Z,16.50
2023-02-09T18:32:04.148Z,15.90
2023-02-09T18:34:33.917Z,14.90
2023-02-09T18:37:04.955Z,14.00
2023-02-09T18:39:37.398Z,19.90
2023-02-09T18:42:08.020Z,15.10
2023-02-09T18:44:37.295Z,15.60
2023-02-09T18:47:07.473Z,14.60
2023-02-09T18:49:37.916Z,15.10
2023-02-09T18:52:09.356Z,14.90
2023-02-09T18:54:39.408Z,17.00
2023-02-09T18:57:08.868Z,16.90
2023-02-09T18:59:38.525Z,16.10
2023-02-09T19:02:11.602Z,15.40
2023-02-09T19:04:42.839Z,15.70
2023-02-09T19:07:13.782Z,15.00
2023-02-09T19:09:46.286Z,16.00
2023-02-09T19:12:16.195Z,15.60
2023-02-09T19:14:47.039Z,15.60
2023-02-09T19:17:18.283Z,16.30
2023-02-09T19:19:49.197Z,16.00
2023-02-09T19:22:22.320Z,16.50
2023-02-09T19:24:55.075Z,19.40
2023-02-09T19:27:27.620Z,17.60
2023-02-09T19:29:58.217Z,17.30
2023-02-09T19:32:28.292Z,19.00
2023-02-09T19:34:59.132Z,20.20
2023-02-09T19:37:29.125Z,23.10
2023-02-09T19:40:05.109Z,18.10
2023-02-09T19:42:35.294Z,15.70
2023-02-09T19:45:06.015Z,17.40
2023-02-09T19:47:37.553Z,15.30
2023-02-09T19:50:07.438Z,14.90
2023-02-09T19:52:38.664Z,15.20
2023-02-09T19:55:08.121Z,16.50
2023-02-09T19:57:37.970Z,16.70
2023-02-09T20:00:48.877Z,16.50
2023-02-09T20:03:19.128Z,16.40
2023-02-09T20:05:49.310Z,15.40
2023-02-09T20:08:20.642Z,14.50
2023-02-09T20:10:50.731Z,14.80
2023-02-09T20:13:24.174Z,15.70
2023-02-09T20:15:54.545Z,15.70
2023-02-09T20:18:25.018Z,15.20
2023-02-09T20:20:54.495Z,15.80
2023-02-09T20:23:24.438Z,15.70
2023-02-09T20:25:54.569Z,16.50
2023-02-09T20:28:24.748Z,15.30
2023-02-09T20:30:55.103Z,14.70
2023-02-09T20:33:24.384Z,15.10
2023-02-09T20:35:53.398Z,15.50
2023-02-09T20:38:22.788Z,15.50
2023-02-09T20:40:56.721Z,15.50
2023-02-09T20:43:45.201Z,15.10
2023-02-09T20:46:42.110Z,16.00
2023-02-09T20:49:14.071Z,15.90
2023-02-09T20:51:44.491Z,15.50
2023-02-09T20:54:14.726Z,15.00
2023-02-09T20:56:44.210Z,17.40
2023-02-09T20:59:14.371Z,15.80
2023-02-09T21:01:43.990Z,15.50
2023-02-09T21:04:14.260Z,17.40
2023-02-09T21:06:43.345Z,17.10
2023-02-09T21:09:16.024Z,16.70
2023-02-09T21:11:46.514Z,15.50
2023-02-09T21:14:27.319Z,14.20
2023-02-09T21:17:04.196Z,15.20
2023-02-09T21:19:34.805Z,16.10
2023-02-09T21:22:03.647Z,16.10
2023-02-09T21:24:32.844Z,17.00
2023-02-09T21:27:02.281Z,16.30
2023-02-09T21:29:31.802Z,15.50
2023-02-09T21:32:03.037Z,16.60
2023-02-09T21:34:33.292Z,19.70
2023-02-09T21:37:02.814Z,16.20
2023-02-09T21:39:33.135Z,15.60
2023-02-09T21:42:22.214Z,15.40
2023-02-09T21:44:55.676Z,17.30
2023-02-09T21:47:30.965Z,17.40
2023-02-09T21:50:01.828Z,18.80
2023-02-09T21:52:32.072Z,15.50
2023-02-09T21:55:01.824Z,14.70
2023-02-09T21:57:31.518Z,15.60
2023-02-09T22:00:06.086Z,12.90
2023-02-09T22:02:36.083Z,15.40
2023-02-09T22:05:06.657Z,15.50
2023-02-09T22:07:36.700Z,16.10
2023-02-09T22:10:06.079Z,15.10
2023-02-09T22:12:36.762Z,14.40
2023-02-09T22:15:06.058Z,15.20
2023-02-09T22:17:37.760Z,16.20
2023-02-09T22:20:07.917Z,15.70
2023-02-09T22:22:37.200Z,16.60
2023-02-09T22:25:06.784Z,16.90
2023-02-09T22:27:35.763Z,15.70
2023-02-09T22:30:04.863Z,17.80
2023-02-09T22:32:33.913Z,17.90
2023-02-09T22:35:03.916Z,17.70
2023-02-09T22:37:33.032Z,19.10
2023-02-09T22:40:02.064Z,17.60
2023-02-09T23:10:52.235Z,13.90
2023-02-09T23:13:21.001Z,26.30
2023-02-09T23:15:49.768Z,20.90
2023-02-09T23:18:18.495Z,21.00
2023-02-09T23:20:48.005Z,18.60
2023-02-09T23:23:16.635Z,17.40
2023-02-09T23:25:45.633Z,19.80
2023-02-09T23:28:15.884Z,22.00
2023-02-09T23:30:45.752Z,20.10
2023-02-09T23:33:14.536Z,20.70
2023-02-09T23:35:46.129Z,19.60
2023-02-09T23:38:18.210Z,19.00
2023-02-09T23:40:46.800Z,17.00
2023-02-09T23:43:17.624Z,14.70
2023-02-09T23:45:46.174Z,15.60
2023-02-09T23:48:14.734Z,14.10
2023-02-09T23:50:43.157Z,15.50
2023-02-09T23:53:13.804Z,15.30
2023-02-09T23:55:42.333Z,14.50
2023-02-09T23:58:10.987Z,15.80
